createdAt,value
2016-05-25T00:00:53.797Z,1008.08
2016-05-25T00:01:53.800Z,1008.05
2016-05-25T00:02:54.536Z,1008.1
2016-05-25T00:03:53.789Z,1008.07
2016-05-25T00:04:53.777Z,1008.06
2016-05-25T00:05:53.780Z,1008.06
2016-05-25T00:06:53.783Z,1008.07
2016-05-25T00:07:53.785Z,1008.11
2016-05-25T00:08:53.882Z,1008.06
2016-05-25T00:09:53.775Z,1008.12
2016-05-25T00:10:53.793Z,1008.1
2016-05-25T00:11:53.765Z,1008.11
2016-05-25T00:12:53.767Z,1008.09
2016-05-25T00:13:53.770Z,1008.07
2016-05-25T00:14:53.773Z,1008.11
2016-05-25T00:15:53.759Z,1008.12
2016-05-25T00:16:53.763Z,1008.1
2016-05-25T00:17:53.765Z,1008.12
2016-05-25T00:18:53.768Z,1008.12
2016-05-25T00:19:53.770Z,1008.11
2016-05-25T00:20:53.757Z,1008.1
2016-05-25T00:21:53.760Z,1008.12
2016-05-25T00:22:53.762Z,1008.12
2016-05-25T00:23:53.750Z,1008.1
2016-05-25T00:24:53.753Z,1008.03
2016-05-25T00:25:53.756Z,1008.08
2016-05-25T00:26:54.867Z,1008.07
2016-05-25T00:27:53.745Z,1008.04
2016-05-25T00:28:55.029Z,1008.07
2016-05-25T00:29:53.751Z,1008.1
2016-05-25T00:30:53.737Z,1008.1
2016-05-25T00:31:54.194Z,1008.09
2016-05-25T00:32:53.742Z,1008.1
2016-05-25T00:33:53.745Z,1008.09
2016-05-25T00:34:53.780Z,1008.12
2016-05-25T00:35:53.735Z,1008.07
2016-05-25T00:36:53.753Z,1008.12
2016-05-25T00:37:53.740Z,1008.1
2016-05-25T00:38:53.728Z,1008.13
2016-05-25T00:39:53.731Z,1008.09
2016-05-25T00:40:53.733Z,1008.11
2016-05-25T00:41:53.721Z,1008.05
2016-05-25T00:42:53.723Z,1008.1
2016-05-25T00:43:53.726Z,1008.08
2016-05-25T00:44:53.728Z,1008.07
2016-05-25T00:45:53.715Z,1008.09
2016-05-25T00:46:53.890Z,1008.11
2016-05-25T00:47:53.721Z,1008.05
2016-05-25T00:48:53.708Z,1008.07
2016-05-25T00:49:53.710Z,1008.09
2016-05-25T00:50:53.713Z,1008.13
2016-05-25T00:51:53.715Z,1008.14
2016-05-25T00:52:53.703Z,1008.13
2016-05-25T00:53:53.706Z,1008.14
2016-05-25T00:54:53.708Z,1008.14
2016-05-25T00:55:53.712Z,1008.13
2016-05-25T00:56:53.698Z,1008.16
2016-05-25T00:57:53.700Z,1008.08
2016-05-25T00:58:53.703Z,1008.12
2016-05-25T00:59:53.706Z,1008.15
2016-05-25T01:00:53.693Z,1008.15
2016-05-25T01:01:53.883Z,1008.13
2016-05-25T01:02:53.698Z,1008.14
2016-05-25T01:03:53.686Z,1008.13
2016-05-25T01:04:53.688Z,1008.18
2016-05-25T01:05:53.691Z,1008.13
2016-05-25T01:06:53.677Z,1008.14
2016-05-25T01:07:53.680Z,1008.15
2016-05-25T01:08:53.683Z,1008.14
2016-05-25T01:09:53.686Z,1008.11
2016-05-25T01:10:53.674Z,1008.12
2016-05-25T01:11:53.676Z,1008.1
2016-05-25T01:12:54.085Z,1008.1
2016-05-25T01:13:53.681Z,1008.11
2016-05-25T01:14:53.824Z,1008.12
2016-05-25T01:15:53.671Z,1008.11
2016-05-25T01:16:53.735Z,1008.11
2016-05-25T01:17:53.660Z,1008.15
2016-05-25T01:18:53.663Z,1008.09
2016-05-25T01:19:53.666Z,1008.11
2016-05-25T01:20:53.668Z,1008.14
2016-05-25T01:21:54.765Z,1008.14
2016-05-25T01:23:53.661Z,1008.16
2016-05-25T01:24:53.664Z,1008.17
2016-05-25T01:25:53.667Z,1008.17
2016-05-25T01:26:53.747Z,1008.19
2016-05-25T01:27:53.657Z,1008.14
2016-05-25T01:28:53.893Z,1008.18
2016-05-25T01:29:53.646Z,1008.16
2016-05-25T01:30:53.648Z,1008.08
2016-05-25T01:31:53.651Z,1008.08
2016-05-25T01:32:53.639Z,1008.1
2016-05-25T01:33:53.641Z,1008.08
2016-05-25T01:34:53.644Z,1008.07
2016-05-25T01:35:53.631Z,1008.08
2016-05-25T01:36:53.633Z,1008.06
2016-05-25T01:37:53.636Z,1008.02
2016-05-25T01:38:53.638Z,1008.08
2016-05-25T01:39:53.626Z,1008.03
2016-05-25T01:40:53.630Z,1008.13
2016-05-25T01:41:53.632Z,1008.07
2016-05-25T01:42:53.619Z,1008.06
2016-05-25T01:43:53.621Z,1008.07
2016-05-25T01:44:53.624Z,1008.04
2016-05-25T01:45:54.830Z,1008.1
2016-05-25T01:46:53.613Z,1008.04
2016-05-25T01:47:53.616Z,1008.02
2016-05-25T01:48:53.619Z,1008.05
2016-05-25T01:49:53.622Z,1008.05
2016-05-25T01:50:53.609Z,1008.08
2016-05-25T01:51:53.611Z,1008.05
2016-05-25T01:52:53.615Z,1008
2016-05-25T01:53:53.601Z,1008.05
2016-05-25T01:54:54.135Z,1007.99
2016-05-25T01:55:53.606Z,1008.04
2016-05-25T01:56:54.672Z,1007.99
2016-05-25T01:57:53.596Z,1008.06
2016-05-25T01:58:53.598Z,1008.08
2016-05-25T01:59:53.601Z,1008.07
2016-05-25T02:00:53.589Z,1008.14
2016-05-25T02:01:53.592Z,1008.09
2016-05-25T02:02:53.595Z,1008.08
2016-05-25T02:03:53.597Z,1008.09
2016-05-25T02:04:53.584Z,1008.09
2016-05-25T02:05:53.586Z,1008.14
2016-05-25T02:06:53.589Z,1008.1
2016-05-25T02:07:53.577Z,1008.12
2016-05-25T02:08:53.579Z,1008.08
2016-05-25T02:09:53.582Z,1008.1
2016-05-25T02:10:53.585Z,1008.08
2016-05-25T02:11:53.572Z,1008
2016-05-25T02:12:53.575Z,1008.04
2016-05-25T02:13:53.577Z,1007.99
2016-05-25T02:14:53.564Z,1008.02
2016-05-25T02:15:53.566Z,1008
2016-05-25T02:16:53.569Z,1008.01
2016-05-25T02:17:53.556Z,1008.01
2016-05-25T02:18:53.559Z,1008.03
2016-05-25T02:19:53.562Z,1008.08
2016-05-25T02:20:53.565Z,1008.08
2016-05-25T02:21:53.567Z,1008.11
2016-05-25T02:22:53.554Z,1008.08
2016-05-25T02:23:53.557Z,1008.08
2016-05-25T02:24:53.544Z,1008.11
2016-05-25T02:25:53.546Z,1008.13
2016-05-25T02:26:53.549Z,1008.15
2016-05-25T02:27:53.551Z,1008.15
2016-05-25T02:28:53.539Z,1008.16
2016-05-25T02:29:53.541Z,1008.19
2016-05-25T02:30:53.544Z,1008.16
2016-05-25T02:31:53.531Z,1008.15
2016-05-25T02:32:53.534Z,1008.15
2016-05-25T02:33:53.537Z,1008.2
2016-05-25T02:34:53.540Z,1008.21
2016-05-25T02:35:53.542Z,1008.21
2016-05-25T02:36:53.530Z,1008.24
2016-05-25T02:37:53.532Z,1008.23
2016-05-25T02:38:53.519Z,1008.26
2016-05-25T02:39:53.521Z,1008.27
2016-05-25T02:40:54.181Z,1008.28
2016-05-25T02:41:53.527Z,1008.3
2016-05-25T02:43:53.517Z,1008.33
2016-05-25T02:44:53.519Z,1008.35
2016-05-25T02:45:53.507Z,1008.35
2016-05-25T02:46:53.588Z,1008.35
2016-05-25T02:47:53.512Z,1008.33
2016-05-25T02:48:53.515Z,1008.33
2016-05-25T02:49:53.501Z,1008.31
2016-05-25T02:50:53.504Z,1008.31
2016-05-25T02:51:53.508Z,1008.34
2016-05-25T02:52:53.509Z,1008.34
2016-05-25T02:53:53.497Z,1008.3
2016-05-25T02:54:53.499Z,1008.31
2016-05-25T02:55:53.487Z,1008.36
2016-05-25T02:56:53.490Z,1008.34
2016-05-25T02:57:53.492Z,1008.35
2016-05-25T02:58:53.495Z,1008.31
2016-05-25T02:59:53.481Z,1008.32
2016-05-25T03:00:53.484Z,1008.34
2016-05-25T03:01:53.487Z,1008.34
2016-05-25T03:02:53.490Z,1008.33
2016-05-25T03:03:53.477Z,1008.34
2016-05-25T03:04:54.292Z,1008.32
2016-05-25T03:05:53.935Z,1008.37
2016-05-25T03:06:53.470Z,1008.34
2016-05-25T03:07:53.691Z,1008.42
2016-05-25T03:08:53.694Z,1008.4
2016-05-25T03:09:53.461Z,1008.38
2016-05-25T03:10:53.464Z,1008.36
2016-05-25T03:11:53.466Z,1008.4
2016-05-25T03:12:53.455Z,1008.4
2016-05-25T03:13:53.863Z,1008.36
2016-05-25T03:14:54.788Z,1008.35
2016-05-25T03:15:53.462Z,1008.33
2016-05-25T03:16:53.449Z,1008.31
2016-05-25T03:17:53.452Z,1008.32
2016-05-25T03:18:53.455Z,1008.37
2016-05-25T03:19:53.441Z,1008.3
2016-05-25T03:20:53.444Z,1008.28
2016-05-25T03:21:53.447Z,1008.29
2016-05-25T03:22:53.450Z,1008.28
2016-05-25T03:23:53.437Z,1008.28
2016-05-25T03:24:53.440Z,1008.29
2016-05-25T03:25:53.443Z,1008.29
2016-05-25T03:26:53.446Z,1008.29
2016-05-25T03:27:53.432Z,1008.31
2016-05-25T03:28:53.435Z,1008.3
2016-05-25T03:29:53.422Z,1008.3
2016-05-25T03:30:53.425Z,1008.33
2016-05-25T03:31:53.896Z,1008.32
2016-05-25T03:32:53.430Z,1008.35
2016-05-25T03:33:53.417Z,1008.33
2016-05-25T03:34:53.420Z,1008.38
2016-05-25T03:35:53.406Z,1008.33
2016-05-25T03:36:53.409Z,1008.37
2016-05-25T03:37:53.412Z,1008.39
2016-05-25T03:38:53.414Z,1008.44
2016-05-25T03:39:53.402Z,1008.37
2016-05-25T03:40:53.405Z,1008.45
2016-05-25T03:41:53.407Z,1008.42
2016-05-25T03:42:53.410Z,1008.42
2016-05-25T03:43:53.397Z,1008.45
2016-05-25T03:44:53.399Z,1008.46
2016-05-25T03:45:53.402Z,1008.48
2016-05-25T03:46:53.389Z,1008.47
2016-05-25T03:47:53.392Z,1008.49
2016-05-25T03:48:53.395Z,1008.52
2016-05-25T03:49:53.397Z,1008.53
2016-05-25T03:50:53.385Z,1008.53
2016-05-25T03:51:54.293Z,1008.52
2016-05-25T03:52:53.390Z,1008.57
2016-05-25T03:53:53.737Z,1008.53
2016-05-25T03:54:53.379Z,1008.54
2016-05-25T03:55:53.383Z,1008.55
2016-05-25T03:56:53.370Z,1008.56
2016-05-25T03:57:53.373Z,1008.54
2016-05-25T03:58:53.376Z,1008.57
2016-05-25T03:59:53.363Z,1008.56
2016-05-25T04:00:53.365Z,1008.53
2016-05-25T04:01:53.367Z,1008.57
2016-05-25T04:02:53.512Z,1008.58
2016-05-25T04:03:53.373Z,1008.58
2016-05-25T04:04:53.360Z,1008.62
2016-05-25T04:05:53.363Z,1008.58
2016-05-25T04:06:53.365Z,1008.59
2016-05-25T04:07:53.352Z,1008.58
2016-05-25T04:08:53.356Z,1008.6
2016-05-25T04:09:53.358Z,1008.59
2016-05-25T04:10:53.345Z,1008.59
2016-05-25T04:11:53.347Z,1008.64
2016-05-25T04:12:53.350Z,1008.63
2016-05-25T04:13:53.353Z,1008.65
2016-05-25T04:14:53.340Z,1008.68
2016-05-25T04:15:53.342Z,1008.7
2016-05-25T04:16:53.705Z,1008.66
2016-05-25T04:17:53.332Z,1008.7
2016-05-25T04:18:53.350Z,1008.7
2016-05-25T04:19:53.361Z,1008.71
2016-05-25T04:20:53.388Z,1008.72
2016-05-25T04:21:53.398Z,1008.71
2016-05-25T04:22:54.675Z,1008.76
2016-05-25T04:23:53.451Z,1008.7
2016-05-25T04:24:53.462Z,1008.71
2016-05-25T04:25:53.459Z,1008.74
2016-05-25T04:26:53.470Z,1008.69
2016-05-25T04:27:53.481Z,1008.71
2016-05-25T04:28:53.742Z,1008.73
2016-05-25T04:29:53.482Z,1008.7
2016-05-25T04:30:53.488Z,1008.72
2016-05-25T04:31:53.478Z,1008.68
2016-05-25T04:32:53.483Z,1008.67
2016-05-25T04:33:53.489Z,1008.64
2016-05-25T04:34:53.493Z,1008.65
2016-05-25T04:35:53.481Z,1008.62
2016-05-25T04:36:53.486Z,1008.64
2016-05-25T04:37:53.489Z,1008.63
2016-05-25T04:38:53.509Z,1008.65
2016-05-25T04:39:53.481Z,1008.63
2016-05-25T04:40:53.483Z,1008.65
2016-05-25T04:41:53.487Z,1008.61
2016-05-25T04:42:53.474Z,1008.6
2016-05-25T04:43:53.476Z,1008.64
2016-05-25T04:44:53.480Z,1008.64
2016-05-25T04:45:53.467Z,1008.62
2016-05-25T04:46:53.470Z,1008.64
2016-05-25T04:47:53.473Z,1008.67
2016-05-25T04:48:53.475Z,1008.64
2016-05-25T04:49:53.478Z,1008.64
2016-05-25T04:50:53.481Z,1008.63
2016-05-25T04:51:53.467Z,1008.63
2016-05-25T04:52:53.470Z,1008.66
2016-05-25T04:53:53.457Z,1008.64
2016-05-25T04:54:53.461Z,1008.66
2016-05-25T04:55:53.463Z,1008.69
2016-05-25T04:56:53.465Z,1008.71
2016-05-25T04:57:53.452Z,1008.68
2016-05-25T04:58:53.455Z,1008.7
2016-05-25T04:59:53.458Z,1008.75
2016-05-25T05:00:53.461Z,1008.74
2016-05-25T05:01:53.463Z,1008.79
2016-05-25T05:02:53.450Z,1008.75
2016-05-25T05:03:53.453Z,1008.81
2016-05-25T05:04:53.440Z,1008.79
2016-05-25T05:05:53.443Z,1008.79
2016-05-25T05:06:53.445Z,1008.79
2016-05-25T05:07:54.635Z,1008.79
2016-05-25T05:08:53.435Z,1008.72
2016-05-25T05:09:53.437Z,1008.72
2016-05-25T05:10:53.440Z,1008.77
2016-05-25T05:11:53.443Z,1008.79
2016-05-25T05:12:53.430Z,1008.78
2016-05-25T05:13:53.432Z,1008.74
2016-05-25T05:14:53.435Z,1008.79
2016-05-25T05:15:53.438Z,1008.81
2016-05-25T05:16:53.426Z,1008.79
2016-05-25T05:17:53.428Z,1008.83
2016-05-25T05:18:53.431Z,1008.85
2016-05-25T05:19:53.417Z,1008.87
2016-05-25T05:20:54.281Z,1008.92
2016-05-25T05:21:53.423Z,1008.94
2016-05-25T05:22:53.426Z,1008.97
2016-05-25T05:23:53.428Z,1009.04
2016-05-25T05:24:53.416Z,1009.03
2016-05-25T05:25:53.419Z,1009.07
2016-05-25T05:26:53.422Z,1009.05
2016-05-25T05:27:53.424Z,1009.03
2016-05-25T05:28:53.411Z,1009.1
2016-05-25T05:29:53.413Z,1009.12
2016-05-25T05:30:53.416Z,1009.13
2016-05-25T05:31:53.403Z,1009.12
2016-05-25T05:32:53.406Z,1009.14
2016-05-25T05:33:53.408Z,1009.14
2016-05-25T05:34:53.411Z,1009.14
2016-05-25T05:35:53.399Z,1009.14
2016-05-25T05:36:53.402Z,1009.17
2016-05-25T05:37:53.404Z,1009.22
2016-05-25T05:38:53.407Z,1009.19
2016-05-25T05:39:53.409Z,1009.2
2016-05-25T05:40:53.412Z,1009.26
2016-05-25T05:41:54.790Z,1009.29
2016-05-25T05:42:53.401Z,1009.33
2016-05-25T05:43:53.763Z,1009.32
2016-05-25T05:44:53.484Z,1009.31
2016-05-25T05:45:53.394Z,1009.32
2016-05-25T05:46:53.850Z,1009.29
2016-05-25T05:47:53.399Z,1009.38
2016-05-25T05:48:53.387Z,1009.4
2016-05-25T05:49:53.389Z,1009.41
2016-05-25T05:50:54.657Z,1009.36
2016-05-25T05:51:53.395Z,1009.44
2016-05-25T05:52:53.381Z,1009.36
2016-05-25T05:53:53.384Z,1009.4
2016-05-25T05:54:54.480Z,1009.4
2016-05-25T05:55:53.968Z,1009.34
2016-05-25T05:56:53.377Z,1009.34
2016-05-25T05:57:53.380Z,1009.35
2016-05-25T05:58:53.383Z,1009.33
2016-05-25T05:59:53.385Z,1009.31
2016-05-25T06:00:53.388Z,1009.33
2016-05-25T06:01:53.405Z,1009.36
2016-05-25T06:02:53.377Z,1009.4
2016-05-25T06:03:53.380Z,1009.41
2016-05-25T06:04:53.382Z,1009.37
2016-05-25T06:05:53.369Z,1009.38
2016-05-25T06:06:53.372Z,1009.34
2016-05-25T06:07:53.374Z,1009.4
2016-05-25T06:08:53.378Z,1009.39
2016-05-25T06:09:53.365Z,1009.45
2016-05-25T06:10:53.368Z,1009.42
2016-05-25T06:11:53.371Z,1009.42
2016-05-25T06:12:53.373Z,1009.44
2016-05-25T06:13:53.376Z,1009.46
2016-05-25T06:14:53.362Z,1009.43
2016-05-25T06:15:53.381Z,1009.46
2016-05-25T06:16:53.368Z,1009.42
2016-05-25T06:17:53.370Z,1009.48
2016-05-25T06:18:53.358Z,1009.47
2016-05-25T06:19:53.360Z,1009.47
2016-05-25T06:20:53.362Z,1009.47
2016-05-25T06:21:53.366Z,1009.45
2016-05-25T06:22:53.368Z,1009.5
2016-05-25T06:23:53.356Z,1009.46
2016-05-25T06:24:53.359Z,1009.52
2016-05-25T06:25:53.361Z,1009.55
2016-05-25T06:27:53.366Z,1009.57
2016-05-25T06:28:53.353Z,1009.6
2016-05-25T06:29:53.355Z,1009.63
2016-05-25T06:30:53.358Z,1009.64
2016-05-25T06:31:53.611Z,1009.68
2016-05-25T06:32:53.349Z,1009.67
2016-05-25T06:33:53.352Z,1009.69
2016-05-25T06:34:53.355Z,1009.62
2016-05-25T06:35:53.357Z,1009.66
2016-05-25T06:36:53.344Z,1009.65
2016-05-25T06:37:53.347Z,1009.68
2016-05-25T06:38:53.896Z,1009.67
2016-05-25T06:39:53.352Z,1009.69
2016-05-25T06:40:53.338Z,1009.71
2016-05-25T06:41:53.342Z,1009.7
2016-05-25T06:42:54.782Z,1009.68
2016-05-25T06:43:53.347Z,1009.71
2016-05-25T06:44:53.334Z,1009.67
2016-05-25T06:45:53.337Z,1009.69
2016-05-25T06:46:53.339Z,1009.72
2016-05-25T06:47:53.342Z,1009.71
2016-05-25T06:48:53.345Z,1009.74
2016-05-25T06:49:53.331Z,1009.73
2016-05-25T06:50:53.335Z,1009.75
2016-05-25T06:51:53.337Z,1009.72
2016-05-25T06:52:53.339Z,1009.74
2016-05-25T06:53:53.343Z,1009.72
2016-05-25T06:54:53.329Z,1009.76
2016-05-25T06:55:53.332Z,1009.74
2016-05-25T06:56:53.335Z,1009.79
2016-05-25T06:57:53.337Z,1009.78
2016-05-25T06:58:53.340Z,1009.79
2016-05-25T06:59:53.327Z,1009.81
2016-05-25T07:00:53.330Z,1009.81
2016-05-25T07:01:53.333Z,1009.77
2016-05-25T07:02:53.617Z,1009.78
2016-05-25T07:03:53.322Z,1009.77
2016-05-25T07:04:53.325Z,1009.77
2016-05-25T07:05:53.328Z,1009.78
2016-05-25T07:06:53.768Z,1009.78
2016-05-25T07:07:53.318Z,1009.77
2016-05-25T07:08:53.321Z,1009.75
2016-05-25T07:09:53.323Z,1009.8
2016-05-25T07:10:53.326Z,1009.76
2016-05-25T07:11:53.344Z,1009.69
2016-05-25T07:12:53.331Z,1009.71
2016-05-25T07:13:53.318Z,1009.7
2016-05-25T07:14:53.321Z,1009.72
2016-05-25T07:15:53.323Z,1009.69
2016-05-25T07:16:53.701Z,1009.71
2016-05-25T07:17:54.563Z,1009.72
2016-05-25T07:18:53.316Z,1009.76
2016-05-25T07:19:53.318Z,1009.76
2016-05-25T07:20:53.321Z,1009.79
2016-05-25T07:21:53.324Z,1009.85
2016-05-25T07:22:53.327Z,1009.85
2016-05-25T07:23:53.314Z,1009.81
2016-05-25T07:24:53.317Z,1009.83
2016-05-25T07:25:53.319Z,1009.8
2016-05-25T07:26:53.322Z,1009.77
2016-05-25T07:27:53.325Z,1009.77
2016-05-25T07:28:53.311Z,1009.81
2016-05-25T07:29:53.314Z,1009.83
2016-05-25T07:30:53.317Z,1009.81
2016-05-25T07:31:53.320Z,1009.8
2016-05-25T07:32:53.322Z,1009.79
2016-05-25T07:33:53.309Z,1009.77
2016-05-25T07:34:53.328Z,1009.8
2016-05-25T07:35:53.314Z,1009.84
2016-05-25T07:36:53.318Z,1009.81
2016-05-25T07:37:53.320Z,1009.83
2016-05-25T07:38:53.323Z,1009.84
2016-05-25T07:39:53.310Z,1009.81
2016-05-25T07:40:53.328Z,1009.83
2016-05-25T07:41:53.315Z,1009.86
2016-05-25T07:42:53.318Z,1009.85
2016-05-25T07:43:53.321Z,1009.84
2016-05-25T07:44:53.324Z,1009.84
2016-05-25T07:45:53.310Z,1009.84
2016-05-25T07:46:53.532Z,1009.87
2016-05-25T07:47:55.129Z,1009.91
2016-05-25T07:48:53.865Z,1009.91
2016-05-25T07:49:53.322Z,1009.93
2016-05-25T07:50:53.465Z,1009.9
2016-05-25T07:51:53.312Z,1009.86
2016-05-25T07:52:53.314Z,1009.91
2016-05-25T07:53:53.317Z,1009.88
2016-05-25T07:54:53.320Z,1009.91
2016-05-25T07:55:53.323Z,1009.92
2016-05-25T07:56:54.121Z,1009.92
2016-05-25T07:57:53.311Z,1009.91
2016-05-25T07:58:53.315Z,1009.94
2016-05-25T07:59:53.317Z,1009.92
2016-05-25T08:00:53.319Z,1009.9
2016-05-25T08:01:53.322Z,1009.94
2016-05-25T08:02:54.262Z,1009.93
2016-05-25T08:03:53.328Z,1009.96
2016-05-25T08:04:53.315Z,1010
2016-05-25T08:05:53.317Z,1010.01
2016-05-25T08:06:53.320Z,1010
2016-05-25T08:07:53.323Z,1010.03
2016-05-25T08:08:53.325Z,1010.04
2016-05-25T08:09:53.313Z,1010.05
2016-05-25T08:10:53.316Z,1010.02
2016-05-25T08:11:53.334Z,1010.02
2016-05-25T08:12:54.868Z,1010.05
2016-05-25T08:13:53.323Z,1010.03
2016-05-25T08:14:53.310Z,1010.03
2016-05-25T08:15:53.329Z,1010.08
2016-05-25T08:16:53.332Z,1010.02
2016-05-25T08:17:53.319Z,1010.03
2016-05-25T08:18:54.102Z,1010.03
2016-05-25T08:19:53.324Z,1010.02
2016-05-25T08:20:53.327Z,1010.05
2016-05-25T08:21:53.329Z,1010.06
2016-05-25T08:22:53.598Z,1010.06
2016-05-25T08:23:53.319Z,1010.08
2016-05-25T08:24:53.321Z,1010.1
2016-05-25T08:25:53.324Z,1010.14
2016-05-25T08:26:53.326Z,1010.15
2016-05-25T08:27:54.158Z,1010.08
2016-05-25T08:28:53.551Z,1010.13
2016-05-25T08:29:54.242Z,1010.15
2016-05-25T08:30:53.322Z,1010.12
2016-05-25T08:31:53.325Z,1010.11
2016-05-25T08:32:54.797Z,1010.15
2016-05-25T08:33:53.331Z,1010.13
2016-05-25T08:34:53.630Z,1010.12
2016-05-25T08:35:53.320Z,1010.12
2016-05-25T08:36:53.322Z,1010.13
2016-05-25T08:37:53.326Z,1010.13
2016-05-25T08:38:53.328Z,1010.12
2016-05-25T08:39:53.331Z,1010.12
2016-05-25T08:40:53.333Z,1010.13
2016-05-25T08:41:53.336Z,1010.18
2016-05-25T08:42:54.292Z,1010.21
2016-05-25T08:43:53.326Z,1010.25
2016-05-25T08:44:53.329Z,1010.28
2016-05-25T08:45:53.332Z,1010.28
2016-05-25T08:46:53.802Z,1010.25
2016-05-25T08:47:53.337Z,1010.26
2016-05-25T08:48:53.340Z,1010.25
2016-05-25T08:49:53.342Z,1010.25
2016-05-25T08:50:53.345Z,1010.24
2016-05-25T08:51:53.348Z,1010.17
2016-05-25T08:52:54.882Z,1010.25
2016-05-25T08:53:53.337Z,1010.23
2016-05-25T08:54:53.356Z,1010.28
2016-05-25T08:55:53.343Z,1010.28
2016-05-25T08:56:53.361Z,1010.33
2016-05-25T08:57:54.004Z,1010.27
2016-05-25T08:58:53.351Z,1010.27
2016-05-25T08:59:53.354Z,1010.22
2016-05-25T09:00:53.356Z,1010.17
2016-05-25T09:01:53.359Z,1010.2
2016-05-25T09:02:53.971Z,1010.24
2016-05-25T09:03:53.364Z,1010.24
2016-05-25T09:04:53.366Z,1010.34
2016-05-25T09:05:53.370Z,1010.38
2016-05-25T09:06:53.372Z,1010.37
2016-05-25T09:07:54.984Z,1010.32
2016-05-25T09:08:53.362Z,1010.41
2016-05-25T09:09:53.364Z,1010.29
2016-05-25T09:10:53.367Z,1010.23
2016-05-25T09:11:53.370Z,1010.21
2016-05-25T09:12:53.373Z,1010.16
2016-05-25T09:13:53.375Z,1010.16
2016-05-25T09:14:53.378Z,1010.08
2016-05-25T09:15:53.381Z,1010.08
2016-05-25T09:16:53.587Z,1010.04
2016-05-25T09:17:53.385Z,1010.04
2016-05-25T09:18:53.389Z,1010.08
2016-05-25T09:19:53.391Z,1010.1
2016-05-25T09:20:53.394Z,1010.11
2016-05-25T09:21:53.397Z,1010.1
2016-05-25T09:22:54.088Z,1010.07
2016-05-25T09:23:53.402Z,1010.02
2016-05-25T09:24:53.405Z,1010.02
2016-05-25T09:25:53.407Z,1010.03
2016-05-25T09:26:53.410Z,1010.04
2016-05-25T09:27:53.412Z,1010.03
2016-05-25T09:28:53.415Z,1010.03
2016-05-25T09:29:53.418Z,1010.08
2016-05-25T09:30:53.421Z,1010.13
2016-05-25T09:31:53.424Z,1010.07
2016-05-25T09:32:53.426Z,1010.14
2016-05-25T09:33:53.429Z,1010.12
2016-05-25T09:34:53.432Z,1010.06
2016-05-25T09:35:53.434Z,1010.09
2016-05-25T09:36:53.437Z,1010.12
2016-05-25T09:37:53.439Z,1010.18
2016-05-25T09:38:53.443Z,1010.19
2016-05-25T09:39:53.445Z,1010.21
2016-05-25T09:40:53.447Z,1010.15
2016-05-25T09:41:54.092Z,1010.11
2016-05-25T09:42:53.454Z,1010.11
2016-05-25T09:43:53.566Z,1010.12
2016-05-25T09:44:53.458Z,1010.13
2016-05-25T09:45:53.461Z,1010.18
2016-05-25T09:46:53.902Z,1010.11
2016-05-25T09:48:55.016Z,1010.08
2016-05-25T09:49:53.472Z,1010.08
2016-05-25T09:50:54.569Z,1010.03
2016-05-25T09:51:53.462Z,1010.05
2016-05-25T09:52:53.465Z,1010.01
2016-05-25T09:53:53.468Z,1010.06
2016-05-25T09:54:53.470Z,1010.13
2016-05-25T09:55:53.473Z,1010.09
2016-05-25T09:56:53.475Z,1010.16
2016-05-25T09:57:53.479Z,1010.09
2016-05-25T09:58:53.481Z,1010.03
2016-05-25T09:59:53.483Z,1010.03
2016-05-25T10:00:53.486Z,1010.01
2016-05-25T10:01:53.489Z,1010.02
2016-05-25T10:02:55.148Z,1010.04
2016-05-25T10:03:53.494Z,1010.07
2016-05-25T10:04:53.497Z,1010.11
2016-05-25T10:05:53.797Z,1010.21
2016-05-25T10:06:53.502Z,1010.26
2016-05-25T10:07:53.520Z,1010.2
2016-05-25T10:08:53.508Z,1010.16
2016-05-25T10:09:53.511Z,1010.17
2016-05-25T10:10:53.513Z,1010.19
2016-05-25T10:11:53.516Z,1010.2
2016-05-25T10:12:53.519Z,1010.28
2016-05-25T10:13:53.521Z,1010.37
2016-05-25T10:14:53.524Z,1010.31
2016-05-25T10:15:53.527Z,1010.28
2016-05-25T10:16:53.592Z,1010.39
2016-05-25T10:17:53.533Z,1010.41
2016-05-25T10:18:53.535Z,1010.41
2016-05-25T10:19:53.537Z,1010.37
2016-05-25T10:20:53.540Z,1010.21
2016-05-25T10:21:53.543Z,1010.18
2016-05-25T10:22:53.546Z,1010.12
2016-05-25T10:23:53.563Z,1010.15
2016-05-25T10:24:53.552Z,1010.2
2016-05-25T10:25:53.554Z,1010.23
2016-05-25T10:26:53.556Z,1010.21
2016-05-25T10:27:53.560Z,1010.25
2016-05-25T10:28:53.562Z,1010.26
2016-05-25T10:29:53.564Z,1010.22
2016-05-25T10:30:53.567Z,1010.25
2016-05-25T10:31:53.992Z,1010.23
2016-05-25T10:32:53.573Z,1010.23
2016-05-25T10:33:53.575Z,1010.24
2016-05-25T10:34:53.578Z,1010.31
2016-05-25T10:35:53.581Z,1010.39
2016-05-25T10:36:53.583Z,1010.32
2016-05-25T10:37:53.586Z,1010.23
2016-05-25T10:38:53.589Z,1010.21
2016-05-25T10:39:53.591Z,1010.19
2016-05-25T10:40:53.594Z,1010.22
2016-05-25T10:41:53.597Z,1010.26
2016-05-25T10:42:53.600Z,1010.39
2016-05-25T10:43:53.602Z,1010.6
2016-05-25T10:44:53.604Z,1010.77
2016-05-25T10:45:53.607Z,1010.86
2016-05-25T10:46:53.625Z,1010.81
2016-05-25T10:47:53.628Z,1010.69
2016-05-25T10:48:53.631Z,1010.54
2016-05-25T10:49:53.633Z,1010.56
2016-05-25T10:50:53.636Z,1010.65
2016-05-25T10:51:53.639Z,1010.65
2016-05-25T10:52:53.642Z,1010.58
2016-05-25T10:53:53.644Z,1010.54
2016-05-25T10:54:53.647Z,1010.52
2016-05-25T10:55:53.650Z,1010.51
2016-05-25T10:56:53.652Z,1010.62
2016-05-25T10:57:54.390Z,1010.64
2016-05-25T10:58:53.673Z,1010.57
2016-05-25T10:59:53.676Z,1010.5
2016-05-25T11:00:53.679Z,1010.48
2016-05-25T11:01:54.400Z,1010.5
2016-05-25T11:02:53.685Z,1010.61
2016-05-25T11:03:53.687Z,1010.61
2016-05-25T11:04:53.690Z,1010.54
2016-05-25T11:05:54.974Z,1010.47
2016-05-25T11:06:53.695Z,1010.47
2016-05-25T11:07:53.698Z,1010.44
2016-05-25T11:08:53.700Z,1010.36
2016-05-25T11:09:53.719Z,1010.36
2016-05-25T11:10:53.722Z,1010.32
2016-05-25T11:11:53.725Z,1010.27
2016-05-25T11:12:53.727Z,1010.32
2016-05-25T11:13:53.729Z,1010.26
2016-05-25T11:14:53.732Z,1010.25
2016-05-25T11:15:53.735Z,1010.26
2016-05-25T11:16:53.753Z,1010.29
2016-05-25T11:17:55.303Z,1010.32
2016-05-25T11:18:53.744Z,1010.26
2016-05-25T11:19:53.761Z,1010.23
2016-05-25T11:20:53.763Z,1010.22
2016-05-25T11:21:53.767Z,1010.2
2016-05-25T11:22:55.066Z,1010.26
2016-05-25T11:23:53.772Z,1010.27
2016-05-25T11:24:53.899Z,1010.23
2016-05-25T11:25:53.778Z,1010.25
2016-05-25T11:26:53.780Z,1010.25
2016-05-25T11:27:53.782Z,1010.26
2016-05-25T11:28:53.785Z,1010.24
2016-05-25T11:29:53.882Z,1010.29
2016-05-25T11:30:53.946Z,1010.34
2016-05-25T11:31:53.809Z,1010.43
2016-05-25T11:32:55.421Z,1010.46
2016-05-25T11:34:53.802Z,1010.33
2016-05-25T11:35:53.820Z,1010.29
2016-05-25T11:36:53.806Z,1010.27
2016-05-25T11:37:54.685Z,1010.24
2016-05-25T11:38:53.812Z,1010.28
2016-05-25T11:39:53.815Z,1010.28
2016-05-25T11:40:53.818Z,1010.25
2016-05-25T11:41:53.820Z,1010.23
2016-05-25T11:42:53.839Z,1010.25
2016-05-25T11:43:53.825Z,1010.22
2016-05-25T11:44:53.859Z,1010.23
2016-05-25T11:45:53.831Z,1010.23
2016-05-25T11:46:53.850Z,1010.24
2016-05-25T11:47:54.150Z,1010.24
2016-05-25T11:48:53.839Z,1010.24
2016-05-25T11:49:53.842Z,1010.21
2016-05-25T11:50:53.844Z,1010.22
2016-05-25T11:51:53.847Z,1010.29
2016-05-25T11:52:53.866Z,1010.28
2016-05-25T11:53:53.852Z,1010.28
2016-05-25T11:54:53.855Z,1010.26
2016-05-25T11:55:53.874Z,1010.24
2016-05-25T11:56:53.860Z,1010.23
2016-05-25T11:57:53.879Z,1010.21
2016-05-25T11:58:53.866Z,1010.25
2016-05-25T11:59:53.869Z,1010.17
2016-05-25T12:00:53.871Z,1010.19
2016-05-25T12:01:53.874Z,1010.18
2016-05-25T12:02:54.237Z,1010.17
2016-05-25T12:03:53.880Z,1010.22
2016-05-25T12:04:53.882Z,1010.21
2016-05-25T12:05:53.884Z,1010.27
2016-05-25T12:06:53.887Z,1010.29
2016-05-25T12:07:53.890Z,1010.34
2016-05-25T12:08:53.893Z,1010.36
2016-05-25T12:09:53.896Z,1010.34
2016-05-25T12:10:53.898Z,1010.32
2016-05-25T12:11:53.900Z,1010.38
2016-05-25T12:12:53.904Z,1010.37
2016-05-25T12:13:53.891Z,1010.38